Fourni — SVAX9 — position and weather

sailwx.info

Track history (hours):
 
Tides and Currents Weather Stations Pressure Air Temp Water Temp Dewpoint Dewpoint Depression Visibility Wind Speed Wind Dir Waves Ship Positions

Fourni

Last reported at 2018-Apr-16 00:56 UTC. Time now 2018-Apr-20 06:50 UTC.
Position N 29°21' W 094°42'.

Length 183 m; draft 11.4 m.

Type: Tanker. MMSI: 240991000.

Date/timePositionNaut miles runAvg speedWind from/ knotsBaromVisibWave heightAir tempDewpointWater temp
2018-Apr-16 00:56N 29°21' W 094°42'510.7
2018-Apr-16 00:30N 29°21' W 094°47'510.5
2018-Apr-16 00:00N 29°26' W 094°50'510.1
2018-Apr-15 23:30N 29°30' W 094°53'5 9.9
2018-Apr-15 23:00N 29°35' W 094°56'4 7.8
2018-Apr-15 22:30N 29°38' W 094°58'5 9.1
2018-Apr-15 22:00N 29°42' W 095°00'3 6.8
2018-Apr-15 21:30N 29°44' W 095°03'2 4.7
2018-Apr-15 20:59N 29°45' W 095°06'2 0.0
2018-Apr-14 05:02N 29°44' W 095°08'0 0.0
2018-Apr-14 05:00N 29°44' W 095°08'0 0.0
2018-Apr-14 04:30N 29°44' W 095°08'1 2.7
2018-Apr-14 04:00N 29°44' W 095°07'3 5.2
2018-Apr-14 03:30N 29°45' W 095°04'3 5.5
2018-Apr-14 03:00N 29°43' W 095°01'4 8.6
2018-Apr-14 02:30N 29°40' W 094°58'611.4
2018-Apr-14 02:00N 29°35' W 094°56'612.1
2018-Apr-14 01:30N 29°30' W 094°52'612.6
2018-Apr-14 01:00N 29°24' W 094°49'59 8.8
2018-Apr-13 18:18N 28°51' W 093°53'412.2
2018-Apr-13 17:58N 28°49' W 093°49'812.7
2018-Apr-13 17:22N 28°44' W 093°42'512.6
2018-Apr-13 16:57N 28°41' W 093°37'612.6
2018-Apr-13 16:30N 28°38' W 093°32'612.6
2018-Apr-13 16:00N 28°34' W 093°26'1812.6
2018-Apr-13 14:35N 28°24' W 093°09'112.6
2018-Apr-13 14:29N 28°23' W 093°08'612.6
2018-Apr-13 14:00N 28°20' W 093°03'4 8.3
2018-Apr-13 13:30N 28°17' W 092°59'  
2018-Apr-09 14:22N 24°28' W 088°30'1 1.5
2018-Apr-09 14:00N 24°28' W 088°29'1 1.5
2018-Apr-09 13:13N 24°27' W 088°28'0 1.4
2018-Apr-09 13:00N 24°27' W 088°28'1 1.6
2018-Apr-09 12:04N 24°26' W 088°27'0 1.6
2018-Apr-09 12:00N 24°25' W 088°27'11 1.4
2018-Apr-09 03:51N 24°20' W 088°17'3 0.9
2018-Apr-09 00:57N 24°20' W 088°14'1 0.9
2018-Apr-09 00:17N 24°20' W 088°13'0 0.9
2018-Apr-09 00:00N 24°20' W 088°13'8 0.8
2018-Apr-08 14:08N 24°16' W 088°05'0 1.0
2018-Apr-08 14:00N 24°15' W 088°05'3 1.2
2018-Apr-08 11:47N 24°14' W 088°02'3 1.2
2018-Apr-08 09:28N 24°12' W 088°00'0 1.0
2018-Apr-08 09:00N 24°11' W 087°60'0 1.0
2018-Apr-08 08:30N 24°11' W 087°60'1 1.0
2018-Apr-08 08:00N 24°11' W 087°59'1 1.0
2018-Apr-08 07:27N 24°10' W 087°59'4 1.0
2018-Apr-08 03:17N 24°08' W 087°55'  
Track history (hours):
 
Tides and Currents Weather Stations Pressure Air Temp Water Temp Dewpoint Dewpoint Depression Visibility Wind Speed Wind Dir Waves Ship Positions

Fourni

Last reported at 2018-Apr-16 00:56 UTC. Time now 2018-Apr-20 06:50 UTC.
Position N 29°21' W 094°42'.

Length 183 m; draft 11.4 m.

Type: Tanker. MMSI: 240991000.

Date/timePositionNaut miles runAvg speedWind from/ knotsBaromVisibWave heightAir tempDewpointWater temp
2018-Apr-16 00:56N 29°21' W 094°42'510.7
2018-Apr-16 00:30N 29°21' W 094°47'510.5
2018-Apr-16 00:00N 29°26' W 094°50'510.1
2018-Apr-15 23:30N 29°30' W 094°53'5 9.9
2018-Apr-15 23:00N 29°35' W 094°56'4 7.8
2018-Apr-15 22:30N 29°38' W 094°58'5 9.1
2018-Apr-15 22:00N 29°42' W 095°00'3 6.8
2018-Apr-15 21:30N 29°44' W 095°03'2 4.7
2018-Apr-15 20:59N 29°45' W 095°06'2 0.0
2018-Apr-14 05:02N 29°44' W 095°08'0 0.0
2018-Apr-14 05:00N 29°44' W 095°08'0 0.0
2018-Apr-14 04:30N 29°44' W 095°08'1 2.7
2018-Apr-14 04:00N 29°44' W 095°07'3 5.2
2018-Apr-14 03:30N 29°45' W 095°04'3 5.5
2018-Apr-14 03:00N 29°43' W 095°01'4 8.6
2018-Apr-14 02:30N 29°40' W 094°58'611.4
2018-Apr-14 02:00N 29°35' W 094°56'612.1
2018-Apr-14 01:30N 29°30' W 094°52'612.6
2018-Apr-14 01:00N 29°24' W 094°49'59 8.8
2018-Apr-13 18:18N 28°51' W 093°53'412.2
2018-Apr-13 17:58N 28°49' W 093°49'812.7
2018-Apr-13 17:22N 28°44' W 093°42'512.6
2018-Apr-13 16:57N 28°41' W 093°37'612.6
2018-Apr-13 16:30N 28°38' W 093°32'612.6
2018-Apr-13 16:00N 28°34' W 093°26'1812.6
2018-Apr-13 14:35N 28°24' W 093°09'112.6
2018-Apr-13 14:29N 28°23' W 093°08'612.6
2018-Apr-13 14:00N 28°20' W 093°03'4 8.3
2018-Apr-13 13:30N 28°17' W 092°59'  
2018-Apr-09 14:22N 24°28' W 088°30'1 1.5
2018-Apr-09 14:00N 24°28' W 088°29'1 1.5
2018-Apr-09 13:13N 24°27' W 088°28'0 1.4
2018-Apr-09 13:00N 24°27' W 088°28'1 1.6
2018-Apr-09 12:04N 24°26' W 088°27'0 1.6
2018-Apr-09 12:00N 24°25' W 088°27'11 1.4
2018-Apr-09 03:51N 24°20' W 088°17'3 0.9
2018-Apr-09 00:57N 24°20' W 088°14'1 0.9
2018-Apr-09 00:17N 24°20' W 088°13'0 0.9
2018-Apr-09 00:00N 24°20' W 088°13'8 0.8
2018-Apr-08 14:08N 24°16' W 088°05'0 1.0
2018-Apr-08 14:00N 24°15' W 088°05'3 1.2
2018-Apr-08 11:47N 24°14' W 088°02'3 1.2
2018-Apr-08 09:28N 24°12' W 088°00'0 1.0
2018-Apr-08 09:00N 24°11' W 087°60'0 1.0
2018-Apr-08 08:30N 24°11' W 087°60'1 1.0
2018-Apr-08 08:00N 24°11' W 087°59'1 1.0
2018-Apr-08 07:27N 24°10' W 087°59'4 1.0
2018-Apr-08 03:17N 24°08' W 087°55'  

Dump ship's entire track history